Terminal Aerodrome Forecast
Issued by NWS Cleveland, OH

Home | Current Version | Previous Version | Text Only | Print | Product List | Glossary On
Versions: 1 2 3 4 5 6 7 8 9 10 11 12 13 14 15 16 17 18 19 20 21 22 23 24 25 26
000
FTUS41 KCLE 020600 AAA
TAFTOL
TAF AMD
KTOL 020657Z 0207/0306 28010KT 6SM BR OVC022
      TEMPO 0208/0212 5SM BR BKN018
     FM021400 28008KT P6SM SCT035
     FM022200 26003KT P6SM BKN250=

USA.gov is the U.S. government's official web portal to all federal, state and local government web resources and services.